sensor_id;sensor_type;location;lat;lon;timestamp;P1;durP1;ratioP1;P2;durP2;ratioP2
4325;SDS011;58429;49.826;10.880;2023-04-25T00:00:22;9;;;4.2;;
4325;SDS011;58429;49.826;10.880;2023-04-25T00:01:22;9;;;4.2;;
4325;SDS011;58429;49.826;10.880;2023-04-25T00:02:22;9;;;4.2;;
4325;SDS011;58429;49.826;10.880;2023-04-25T00:03:22;9.2;;;3.9;;
4325;SDS011;58429;49.826;10.880;2023-04-25T00:04:22;9.2;;;3.9;;
4325;SDS011;58429;49.826;10.880;2023-04-25T00:05:22;9.2;;;3.9;;
4325;SDS011;58429;49.826;10.880;2023-04-25T00:06:22;8.7;;;4.1;;
4325;SDS011;58429;49.826;10.880;2023-04-25T00:07:22;8.7;;;4.1;;
4325;SDS011;58429;49.826;10.880;2023-04-25T00:08:22;8.7;;;4.1;;
4325;SDS011;58429;49.826;10.880;2023-04-25T00:09:22;8.7;;;3.8;;
4325;SDS011;58429;49.826;10.880;2023-04-25T00:10:22;8.7;;;3.8;;
4325;SDS011;58429;49.826;10.880;2023-04-25T00:11:22;8.7;;;3.8;;
4325;SDS011;58429;49.826;10.880;2023-04-25T00:12:22;8.9;;;4.1;;
4325;SDS011;58429;49.826;10.880;2023-04-25T00:13:22;8.9;;;4.1;;
4325;SDS011;58429;49.826;10.880;2023-04-25T00:14:22;8.9;;;4.1;;
4325;SDS011;58429;49.826;10.880;2023-04-25T00:15:22;7.6;;;3.7;;
4325;SDS011;58429;49.826;10.880;2023-04-25T00:16:22;7.6;;;3.7;;
4325;SDS011;58429;49.826;10.880;2023-04-25T00:17:22;7.6;;;3.7;;
4325;SDS011;58429;49.826;10.880;2023-04-25T00:18:22;7.7;;;3.5;;
4325;SDS011;58429;49.826;10.880;2023-04-25T00:19:22;7.7;;;3.5;;
4325;SDS011;58429;49.826;10.880;2023-04-25T00:20:22;7.7;;;3.5;;
4325;SDS011;58429;49.826;10.880;2023-04-25T00:21:22;8.2;;;3.8;;
4325;SDS011;58429;49.826;10.880;2023-04-25T00:22:22;8.2;;;3.8;;
4325;SDS011;58429;49.826;10.880;2023-04-25T00:23:22;8.2;;;3.8;;
4325;SDS011;58429;49.826;10.880;2023-04-25T00:24:22;8.6;;;3.9;;
4325;SDS011;58429;49.826;10.880;2023-04-25T00:25:22;8.6;;;3.9;;
4325;SDS011;58429;49.826;10.880;2023-04-25T00:26:22;8.6;;;3.9;;
4325;SDS011;58429;49.826;10.880;2023-04-25T00:27:22;9.8;;;4;;
4325;SDS011;58429;49.826;10.880;2023-04-25T00:28:22;9.8;;;4;;
4325;SDS011;58429;49.826;10.880;2023-04-25T00:29:22;9.8;;;4;;
4325;SDS011;58429;49.826;10.880;2023-04-25T00:30:22;8.5;;;3.8;;
4325;SDS011;58429;49.826;10.880;2023-04-25T00:31:22;8.5;;;3.8;;
4325;SDS011;58429;49.826;10.880;2023-04-25T00:32:22;8.5;;;3.8;;
4325;SDS011;58429;49.826;10.880;2023-04-25T00:33:22;9;;;3.7;;
4325;SDS011;58429;49.826;10.880;2023-04-25T00:34:22;9;;;3.7;;
4325;SDS011;58429;49.826;10.880;2023-04-25T00:35:22;9;;;3.7;;
4325;SDS011;58429;49.826;10.880;2023-04-25T00:36:22;10.7;;;4.2;;
4325;SDS011;58429;49.826;10.880;2023-04-25T00:37:22;10.7;;;4.2;;
4325;SDS011;58429;49.826;10.880;2023-04-25T00:38:22;10.7;;;4.2;;
4325;SDS011;58429;49.826;10.880;2023-04-25T00:39:22;9.2;;;3.9;;
4325;SDS011;58429;49.826;10.880;2023-04-25T00:40:22;9.2;;;3.9;;
4325;SDS011;58429;49.826;10.880;2023-04-25T00:41:22;9.2;;;3.9;;
4325;SDS011;58429;49.826;10.880;2023-04-25T00:42:22;8.9;;;3.9;;
4325;SDS011;58429;49.826;10.880;2023-04-25T00:43:23;8.9;;;3.9;;
4325;SDS011;58429;49.826;10.880;2023-04-25T00:44:22;8.9;;;3.9;;
4325;SDS011;58429;49.826;10.880;2023-04-25T00:45:22;9.2;;;3.9;;
4325;SDS011;58429;49.826;10.880;2023-04-25T00:46:22;9.2;;;3.9;;
4325;SDS011;58429;49.826;10.880;2023-04-25T00:47:22;9.2;;;3.9;;
4325;SDS011;58429;49.826;10.880;2023-04-25T00:48:22;8.4;;;3.8;;
4325;SDS011;58429;49.826;10.880;2023-04-25T00:49:22;8.4;;;3.8;;
4325;SDS011;58429;49.826;10.880;2023-04-25T00:50:22;8.4;;;3.8;;
4325;SDS011;58429;49.826;10.880;2023-04-25T00:51:22;9.2;;;3.9;;
4325;SDS011;58429;49.826;10.880;2023-04-25T00:52:22;9.2;;;3.9;;
4325;SDS011;58429;49.826;10.880;2023-04-25T00:53:23;9.2;;;3.9;;
4325;SDS011;58429;49.826;10.880;2023-04-25T00:54:22;8.9;;;3.7;;
4325;SDS011;58429;49.826;10.880;2023-04-25T00:55:22;8.9;;;3.7;;
4325;SDS011;58429;49.826;10.880;2023-04-25T00:56:22;8.9;;;3.7;;
4325;SDS011;58429;49.826;10.880;2023-04-25T00:57:22;8.2;;;3.5;;
4325;SDS011;58429;49.826;10.880;2023-04-25T00:58:22;8.2;;;3.5;;
4325;SDS011;58429;49.826;10.880;2023-04-25T00:59:22;8.2;;;3.5;;
4325;SDS011;58429;49.826;10.880;2023-04-25T01:00:22;8.1;;;3.9;;
4325;SDS011;58429;49.826;10.880;2023-04-25T01:01:22;8.1;;;3.9;;
4325;SDS011;58429;49.826;10.880;2023-04-25T01:02:22;8.1;;;3.9;;
4325;SDS011;58429;49.826;10.880;2023-04-25T01:03:22;8.9;;;3.8;;
4325;SDS011;58429;49.826;10.880;2023-04-25T01:04:22;8.9;;;3.8;;
4325;SDS011;58429;49.826;10.880;2023-04-25T01:05:22;8.9;;;3.8;;
4325;SDS011;58429;49.826;10.880;2023-04-25T01:06:22;9;;;4;;
4325;SDS011;58429;49.826;10.880;2023-04-25T01:07:22;9;;;4;;
4325;SDS011;58429;49.826;10.880;2023-04-25T01:08:23;9;;;4;;
4325;SDS011;58429;49.826;10.880;2023-04-25T01:09:22;8.8;;;3.8;;
4325;SDS011;58429;49.826;10.880;2023-04-25T01:10:22;8.8;;;3.8;;
4325;SDS011;58429;49.826;10.880;2023-04-25T01:11:22;8.8;;;3.8;;
4325;SDS011;58429;49.826;10.880;2023-04-25T01:12:22;10.5;;;4.4;;
4325;SDS011;58429;49.826;10.880;2023-04-25T01:13:22;10.5;;;4.4;;
4325;SDS011;58429;49.826;10.880;2023-04-25T01:14:22;10.5;;;4.4;;
4325;SDS011;58429;49.826;10.880;2023-04-25T01:15:22;8.2;;;3.7;;
4325;SDS011;58429;49.826;10.880;2023-04-25T01:16:22;8.2;;;3.7;;
4325;SDS011;58429;49.826;10.880;2023-04-25T01:17:22;8.2;;;3.7;;
4325;SDS011;58429;49.826;10.880;2023-04-25T01:18:22;9;;;3.9;;
4325;SDS011;58429;49.826;10.880;2023-04-25T01:19:22;9;;;3.9;;
4325;SDS011;58429;49.826;10.880;2023-04-25T01:20:22;9;;;3.9;;
4325;SDS011;58429;49.826;10.880;2023-04-25T01:21:22;7.6;;;3.7;;
4325;SDS011;58429;49.826;10.880;2023-04-25T01:22:22;7.6;;;3.7;;
4325;SDS011;58429;49.826;10.880;2023-04-25T01:23:22;7.6;;;3.7;;
4325;SDS011;58429;49.826;10.880;2023-04-25T01:24:22;9.3;;;4;;
4325;SDS011;58429;49.826;10.880;2023-04-25T01:25:22;9.3;;;4;;
4325;SDS011;58429;49.826;10.880;2023-04-25T01:26:22;9.3;;;4;;
4325;SDS011;58429;49.826;10.880;2023-04-25T01:27:22;8.4;;;3.7;;
4325;SDS011;58429;49.826;10.880;2023-04-25T01:28:22;8.4;;;3.7;;
4325;SDS011;58429;49.826;10.880;2023-04-25T01:29:22;8.4;;;3.7;;
4325;SDS011;58429;49.826;10.880;2023-04-25T01:30:22;8.4;;;3.7;;
4325;SDS011;58429;49.826;10.880;2023-04-25T01:31:22;9.3;;;4;;
4325;SDS011;58429;49.826;10.880;2023-04-25T01:32:22;9.3;;;4;;
4325;SDS011;58429;49.826;10.880;2023-04-25T01:33:22;9.3;;;4;;
4325;SDS011;58429;49.826;10.880;2023-04-25T01:34:22;9.7;;;4.2;;
4325;SDS011;58429;49.826;10.880;2023-04-25T01:35:22;9.7;;;4.2;;
4325;SDS011;58429;49.826;10.880;2023-04-25T01:36:22;9.7;;;4.2;;
4325;SDS011;58429;49.826;10.880;2023-04-25T01:37:22;10.1;;;4;;
4325;SDS011;58429;49.826;10.880;2023-04-25T01:38:22;10.1;;;4;;
4325;SDS011;58429;49.826;10.880;2023-04-25T01:39:22;10.1;;;4;;
4325;SDS011;58429;49.826;10.880;2023-04-25T01:40:22;8.9;;;4.2;;
4325;SDS011;58429;49.826;10.880;2023-04-25T01:41:22;8.9;;;4.2;;
4325;SDS011;58429;49.826;10.880;2023-04-25T01:42:22;8.9;;;4.2;;
4325;SDS011;58429;49.826;10.880;2023-04-25T01:43:22;9.9;;;4.1;;
4325;SDS011;58429;49.826;10.880;2023-04-25T01:44:22;9.9;;;4.1;;
4325;SDS011;58429;49.826;10.880;2023-04-25T01:45:22;9.9;;;4.1;;
4325;SDS011;58429;49.826;10.880;2023-04-25T01:46:22;9.3;;;4.4;;
4325;SDS011;58429;49.826;10.880;2023-04-25T01:47:22;9.3;;;4.4;;
4325;SDS011;58429;49.826;10.880;2023-04-25T01:48:22;9.3;;;4.4;;
4325;SDS011;58429;49.826;10.880;2023-04-25T01:49:22;10.5;;;4.4;;
4325;SDS011;58429;49.826;10.880;2023-04-25T01:50:22;10.5;;;4.4;;
4325;SDS011;58429;49.826;10.880;2023-04-25T01:51:22;10.5;;;4.4;;
4325;SDS011;58429;49.826;10.880;2023-04-25T01:52:22;8.9;;;4.1;;
4325;SDS011;58429;49.826;10.880;2023-04-25T01:53:22;8.9;;;4.1;;
4325;SDS011;58429;49.826;10.880;2023-04-25T01:54:22;8.9;;;4.1;;
4325;SDS011;58429;49.826;10.880;2023-04-25T01:55:22;9.7;;;4.9;;
4325;SDS011;58429;49.826;10.880;2023-04-25T01:56:22;9.7;;;4.9;;
4325;SDS011;58429;49.826;10.880;2023-04-25T01:57:22;9.7;;;4.9;;
4325;SDS011;58429;49.826;10.880;2023-04-25T01:58:22;10.5;;;4.4;;
4325;SDS011;58429;49.826;10.880;2023-04-25T01:59:22;10.5;;;4.4;;
4325;SDS011;58429;49.826;10.880;2023-04-25T02:00:22;10.5;;;4.4;;
4325;SDS011;58429;49.826;10.880;2023-04-25T02:01:22;11.2;;;4.9;;
4325;SDS011;58429;49.826;10.880;2023-04-25T02:02:22;11.2;;;4.9;;
4325;SDS011;58429;49.826;10.880;2023-04-25T02:03:22;11.2;;;4.9;;
4325;SDS011;58429;49.826;10.880;2023-04-25T02:04:22;11.1;;;4.6;;
4325;SDS011;58429;49.826;10.880;2023-04-25T02:05:22;11.1;;;4.6;;
4325;SDS011;58429;49.826;10.880;2023-04-25T02:06:22;11.1;;;4.6;;
4325;SDS011;58429;49.826;10.880;2023-04-25T02:07:22;11.1;;;4.8;;
4325;SDS011;58429;49.826;10.880;2023-04-25T02:08:22;11.1;;;4.8;;
4325;SDS011;58429;49.826;10.880;2023-04-25T02:09:22;11.1;;;4.8;;
4325;SDS011;58429;49.826;10.880;2023-04-25T02:10:22;9.4;;;4.2;;
4325;SDS011;58429;49.826;10.880;2023-04-25T02:11:22;9.4;;;4.2;;
4325;SDS011;58429;49.826;10.880;2023-04-25T02:12:22;9.4;;;4.2;;
4325;SDS011;58429;49.826;10.880;2023-04-25T02:13:22;10.1;;;4.6;;
4325;SDS011;58429;49.826;10.880;2023-04-25T02:14:22;10.1;;;4.6;;
4325;SDS011;58429;49.826;10.880;2023-04-25T02:15:22;10.1;;;4.6;;
4325;SDS011;58429;49.826;10.880;2023-04-25T02:16:22;11.2;;;4.5;;
4325;SDS011;58429;49.826;10.880;2023-04-25T02:17:22;11.2;;;4.5;;
4325;SDS011;58429;49.826;10.880;2023-04-25T02:18:22;11.2;;;4.5;;
4325;SDS011;58429;49.826;10.880;2023-04-25T02:19:22;10.9;;;4;;
4325;SDS011;58429;49.826;10.880;2023-04-25T02:20:23;10.9;;;4;;
4325;SDS011;58429;49.826;10.880;2023-04-25T02:21:22;10.9;;;4;;
4325;SDS011;58429;49.826;10.880;2023-04-25T02:22:22;10.5;;;3.9;;
4325;SDS011;58429;49.826;10.880;2023-04-25T02:23:22;10.5;;;3.9;;
4325;SDS011;58429;49.826;10.880;2023-04-25T02:24:22;10.5;;;3.9;;
4325;SDS011;58429;49.826;10.880;2023-04-25T02:25:22;9.6;;;4.3;;
4325;SDS011;58429;49.826;10.880;2023-04-25T02:26:22;9.6;;;4.3;;
4325;SDS011;58429;49.826;10.880;2023-04-25T02:27:22;9.6;;;4.3;;
4325;SDS011;58429;49.826;10.880;2023-04-25T02:28:23;9.8;;;4.3;;
4325;SDS011;58429;49.826;10.880;2023-04-25T02:29:22;9.8;;;4.3;;
4325;SDS011;58429;49.826;10.880;2023-04-25T02:30:22;9.8;;;4.3;;
4325;SDS011;58429;49.826;10.880;2023-04-25T02:31:22;9.8;;;4.4;;
4325;SDS011;58429;49.826;10.880;2023-04-25T02:32:22;9.8;;;4.4;;
4325;SDS011;58429;49.826;10.880;2023-04-25T02:33:22;9.8;;;4.4;;
4325;SDS011;58429;49.826;10.880;2023-04-25T02:34:22;10.4;;;4.4;;
4325;SDS011;58429;49.826;10.880;2023-04-25T02:35:22;10.4;;;4.4;;
4325;SDS011;58429;49.826;10.880;2023-04-25T02:36:22;10.4;;;4.4;;
4325;SDS011;58429;49.826;10.880;2023-04-25T02:37:22;10.3;;;4.4;;
4325;SDS011;58429;49.826;10.880;2023-04-25T02:38:22;10.3;;;4.4;;
4325;SDS011;58429;49.826;10.880;2023-04-25T02:39:22;10.3;;;4.4;;
4325;SDS011;58429;49.826;10.880;2023-04-25T02:40:22;10.6;;;4.6;;
4325;SDS011;58429;49.826;10.880;2023-04-25T02:41:23;10.6;;;4.6;;
4325;SDS011;58429;49.826;10.880;2023-04-25T02:42:22;10.6;;;4.6;;
4325;SDS011;58429;49.826;10.880;2023-04-25T02:43:22;10.4;;;4.8;;
4325;SDS011;58429;49.826;10.880;2023-04-25T02:44:22;10.4;;;4.8;;
4325;SDS011;58429;49.826;10.880;2023-04-25T02:45:22;10.4;;;4.8;;
4325;SDS011;58429;49.826;10.880;2023-04-25T02:46:22;10;;;4.2;;
4325;SDS011;58429;49.826;10.880;2023-04-25T02:47:22;10;;;4.2;;
4325;SDS011;58429;49.826;10.880;2023-04-25T02:48:22;10;;;4.2;;
4325;SDS011;58429;49.826;10.880;2023-04-25T02:49:22;10.3;;;4.1;;
4325;SDS011;58429;49.826;10.880;2023-04-25T02:50:22;10.3;;;4.1;;
4325;SDS011;58429;49.826;10.880;2023-04-25T02:51:22;10.3;;;4.1;;
4325;SDS011;58429;49.826;10.880;2023-04-25T02:52:22;9.7;;;4.4;;
4325;SDS011;58429;49.826;10.880;2023-04-25T02:53:22;9.7;;;4.4;;
4325;SDS011;58429;49.826;10.880;2023-04-25T02:54:22;9.7;;;4.4;;
4325;SDS011;58429;49.826;10.880;2023-04-25T02:55:22;9;;;4.4;;
4325;SDS011;58429;49.826;10.880;2023-04-25T02:56:22;9;;;4.4;;
4325;SDS011;58429;49.826;10.880;2023-04-25T02:57:23;9;;;4.4;;
4325;SDS011;58429;49.826;10.880;2023-04-25T02:58:22;10.6;;;4.1;;
4325;SDS011;58429;49.826;10.880;2023-04-25T02:59:22;10.6;;;4.1;;
4325;SDS011;58429;49.826;10.880;2023-04-25T03:00:22;10.6;;;4.1;;
4325;SDS011;58429;49.826;10.880;2023-04-25T03:01:22;10.6;;;4.2;;
4325;SDS011;58429;49.826;10.880;2023-04-25T03:02:22;10.6;;;4.2;;
4325;SDS011;58429;49.826;10.880;2023-04-25T03:03:22;10.6;;;4.2;;
4325;SDS011;58429;49.826;10.880;2023-04-25T03:04:22;9.3;;;4;;
4325;SDS011;58429;49.826;10.880;2023-04-25T03:05:22;9.3;;;4;;
4325;SDS011;58429;49.826;10.880;2023-04-25T03:06:22;9.3;;;4;;
4325;SDS011;58429;49.826;10.880;2023-04-25T03:07:22;10.2;;;4.1;;
4325;SDS011;58429;49.826;10.880;2023-04-25T03:08:22;10.2;;;4.1;;
4325;SDS011;58429;49.826;10.880;2023-04-25T03:09:22;10.2;;;4.1;;
4325;SDS011;58429;49.826;10.880;2023-04-25T03:10:22;10;;;4.7;;
4325;SDS011;58429;49.826;10.880;2023-04-25T03:11:24;10;;;4.7;;
4325;SDS011;58429;49.826;10.880;2023-04-25T03:12:22;10;;;4.7;;
4325;SDS011;58429;49.826;10.880;2023-04-25T03:13:23;9.1;;;4;;
4325;SDS011;58429;49.826;10.880;2023-04-25T03:14:22;9.1;;;4;;
4325;SDS011;58429;49.826;10.880;2023-04-25T03:15:22;9.1;;;4;;
4325;SDS011;58429;49.826;10.880;2023-04-25T03:16:23;10;;;4.5;;
4325;SDS011;58429;49.826;10.880;2023-04-25T03:17:22;10;;;4.5;;
4325;SDS011;58429;49.826;10.880;2023-04-25T03:18:22;10;;;4.5;;
4325;SDS011;58429;49.826;10.880;2023-04-25T03:19:22;10;;;4.5;;
4325;SDS011;58429;49.826;10.880;2023-04-25T03:20:22;10.1;;;4.7;;
4325;SDS011;58429;49.826;10.880;2023-04-25T03:21:23;10.1;;;4.7;;
4325;SDS011;58429;49.826;10.880;2023-04-25T03:22:23;10.1;;;4.7;;
4325;SDS011;58429;49.826;10.880;2023-04-25T03:23:23;9.8;;;4.3;;
4325;SDS011;58429;49.826;10.880;2023-04-25T03:24:22;9.8;;;4.3;;
4325;SDS011;58429;49.826;10.880;2023-04-25T03:25:22;9.8;;;4.3;;
4325;SDS011;58429;49.826;10.880;2023-04-25T03:26:22;10.2;;;4.9;;
4325;SDS011;58429;49.826;10.880;2023-04-25T03:27:22;10.2;;;4.9;;
4325;SDS011;58429;49.826;10.880;2023-04-25T03:28:23;10.2;;;4.9;;
4325;SDS011;58429;49.826;10.880;2023-04-25T03:29:23;10.5;;;4.3;;
4325;SDS011;58429;49.826;10.880;2023-04-25T03:30:23;10.5;;;4.3;;
4325;SDS011;58429;49.826;10.880;2023-04-25T03:31:23;10.5;;;4.3;;
4325;SDS011;58429;49.826;10.880;2023-04-25T03:32:23;9.7;;;4.3;;
4325;SDS011;58429;49.826;10.880;2023-04-25T03:33:23;9.7;;;4.3;;
4325;SDS011;58429;49.826;10.880;2023-04-25T03:34:23;9.7;;;4.3;;
4325;SDS011;58429;49.826;10.880;2023-04-25T03:35:23;9;;;4.2;;
4325;SDS011;58429;49.826;10.880;2023-04-25T03:36:23;9;;;4.2;;
4325;SDS011;58429;49.826;10.880;2023-04-25T03:37:23;9;;;4.2;;
4325;SDS011;58429;49.826;10.880;2023-04-25T03:38:23;10.2;;;4.3;;
4325;SDS011;58429;49.826;10.880;2023-04-25T03:39:23;10.2;;;4.3;;
4325;SDS011;58429;49.826;10.880;2023-04-25T03:40:23;10.2;;;4.3;;
4325;SDS011;58429;49.826;10.880;2023-04-25T03:41:23;10;;;4.4;;
4325;SDS011;58429;49.826;10.880;2023-04-25T03:42:23;10;;;4.4;;
4325;SDS011;58429;49.826;10.880;2023-04-25T03:43:23;10;;;4.4;;
4325;SDS011;58429;49.826;10.880;2023-04-25T03:44:23;9.9;;;4.8;;
4325;SDS011;58429;49.826;10.880;2023-04-25T03:45:23;9.9;;;4.8;;
4325;SDS011;58429;49.826;10.880;2023-04-25T03:46:23;9.9;;;4.8;;
4325;SDS011;58429;49.826;10.880;2023-04-25T03:47:23;10.7;;;5;;
4325;SDS011;58429;49.826;10.880;2023-04-25T03:48:23;10.7;;;5;;
4325;SDS011;58429;49.826;10.880;2023-04-25T03:49:23;10.7;;;5;;
4325;SDS011;58429;49.826;10.880;2023-04-25T03:50:23;10.2;;;4.5;;
4325;SDS011;58429;49.826;10.880;2023-04-25T03:51:23;10.2;;;4.5;;
4325;SDS011;58429;49.826;10.880;2023-04-25T03:52:23;10.2;;;4.5;;
4325;SDS011;58429;49.826;10.880;2023-04-25T03:53:23;10.7;;;4;;
4325;SDS011;58429;49.826;10.880;2023-04-25T03:54:23;10.7;;;4;;
4325;SDS011;58429;49.826;10.880;2023-04-25T03:55:23;10.7;;;4;;
4325;SDS011;58429;49.826;10.880;2023-04-25T03:56:23;9.3;;;4.4;;
4325;SDS011;58429;49.826;10.880;2023-04-25T03:57:23;9.3;;;4.4;;
4325;SDS011;58429;49.826;10.880;2023-04-25T03:58:23;9.3;;;4.4;;
4325;SDS011;58429;49.826;10.880;2023-04-25T03:59:23;9.5;;;4.2;;
4325;SDS011;58429;49.826;10.880;2023-04-25T04:00:23;9.5;;;4.2;;
4325;SDS011;58429;49.826;10.880;2023-04-25T04:01:23;9.5;;;4.2;;
4325;SDS011;58429;49.826;10.880;2023-04-25T04:02:23;10.4;;;4.9;;
4325;SDS011;58429;49.826;10.880;2023-04-25T04:03:23;10.4;;;4.9;;
4325;SDS011;58429;49.826;10.880;2023-04-25T04:04:23;10.4;;;4.9;;
4325;SDS011;58429;49.826;10.880;2023-04-25T04:05:23;9.8;;;4.6;;
4325;SDS011;58429;49.826;10.880;2023-04-25T04:06:23;9.8;;;4.6;;
4325;SDS011;58429;49.826;10.880;2023-04-25T04:07:23;9.8;;;4.6;;
4325;SDS011;58429;49.826;10.880;2023-04-25T04:08:23;9.4;;;4.4;;
4325;SDS011;58429;49.826;10.880;2023-04-25T04:09:23;9.4;;;4.4;;
4325;SDS011;58429;49.826;10.880;2023-04-25T04:10:23;9.4;;;4.4;;
4325;SDS011;58429;49.826;10.880;2023-04-25T04:11:23;10.5;;;5;;
4325;SDS011;58429;49.826;10.880;2023-04-25T04:12:23;10.5;;;5;;
4325;SDS011;58429;49.826;10.880;2023-04-25T04:13:23;10.5;;;5;;
4325;SDS011;58429;49.826;10.880;2023-04-25T04:14:23;10.2;;;4.8;;
4325;SDS011;58429;49.826;10.880;2023-04-25T04:15:23;10.2;;;4.8;;
4325;SDS011;58429;49.826;10.880;2023-04-25T04:16:23;10.2;;;4.8;;
4325;SDS011;58429;49.826;10.880;2023-04-25T04:17:23;11.9;;;4.7;;
4325;SDS011;58429;49.826;10.880;2023-04-25T04:18:23;11.9;;;4.7;;
4325;SDS011;58429;49.826;10.880;2023-04-25T04:19:23;11.9;;;4.7;;
4325;SDS011;58429;49.826;10.880;2023-04-25T04:20:23;10.3;;;4.8;;
4325;SDS011;58429;49.826;10.880;2023-04-25T04:21:23;10.3;;;4.8;;
4325;SDS011;58429;49.826;10.880;2023-04-25T04:22:23;10.3;;;4.8;;
4325;SDS011;58429;49.826;10.880;2023-04-25T04:23:23;9.5;;;4.5;;
4325;SDS011;58429;49.826;10.880;2023-04-25T04:24:23;9.5;;;4.5;;
4325;SDS011;58429;49.826;10.880;2023-04-25T04:25:23;9.5;;;4.5;;
4325;SDS011;58429;49.826;10.880;2023-04-25T04:26:23;9.7;;;4.6;;
4325;SDS011;58429;49.826;10.880;2023-04-25T04:27:23;9.7;;;4.6;;
4325;SDS011;58429;49.826;10.880;2023-04-25T04:28:23;9.7;;;4.6;;
4325;SDS011;58429;49.826;10.880;2023-04-25T04:29:23;9;;;4;;
4325;SDS011;58429;49.826;10.880;2023-04-25T04:30:23;9;;;4;;
4325;SDS011;58429;49.826;10.880;2023-04-25T04:31:23;9;;;4;;
4325;SDS011;58429;49.826;10.880;2023-04-25T04:32:23;8.6;;;3.5;;
4325;SDS011;58429;49.826;10.880;2023-04-25T04:33:23;8.6;;;3.5;;
4325;SDS011;58429;49.826;10.880;2023-04-25T04:34:23;8.6;;;3.5;;
4325;SDS011;58429;49.826;10.880;2023-04-25T04:35:23;10.3;;;3.6;;
4325;SDS011;58429;49.826;10.880;2023-04-25T04:36:23;10.3;;;3.6;;
4325;SDS011;58429;49.826;10.880;2023-04-25T04:37:23;10.3;;;3.6;;
4325;SDS011;58429;49.826;10.880;2023-04-25T04:38:23;8.6;;;3.9;;
4325;SDS011;58429;49.826;10.880;2023-04-25T04:39:23;8.6;;;3.9;;
4325;SDS011;58429;49.826;10.880;2023-04-25T04:40:23;8.6;;;3.9;;
4325;SDS011;58429;49.826;10.880;2023-04-25T04:41:23;9.5;;;4;;
4325;SDS011;58429;49.826;10.880;2023-04-25T04:42:23;9.5;;;4;;
4325;SDS011;58429;49.826;10.880;2023-04-25T04:43:23;9.5;;;4;;
4325;SDS011;58429;49.826;10.880;2023-04-25T04:44:23;8.6;;;3.8;;
4325;SDS011;58429;49.826;10.880;2023-04-25T04:45:23;8.6;;;3.8;;
4325;SDS011;58429;49.826;10.880;2023-04-25T04:46:23;8.6;;;3.8;;
4325;SDS011;58429;49.826;10.880;2023-04-25T04:47:23;8.4;;;3.8;;
4325;SDS011;58429;49.826;10.880;2023-04-25T04:48:23;8.4;;;3.8;;
4325;SDS011;58429;49.826;10.880;2023-04-25T04:49:23;8.4;;;3.8;;
4325;SDS011;58429;49.826;10.880;2023-04-25T04:50:23;9.7;;;3.8;;
4325;SDS011;58429;49.826;10.880;2023-04-25T04:51:23;9.7;;;3.8;;
4325;SDS011;58429;49.826;10.880;2023-04-25T04:52:23;9.7;;;3.8;;
4325;SDS011;58429;49.826;10.880;2023-04-25T04:53:23;8.9;;;3.8;;
4325;SDS011;58429;49.826;10.880;2023-04-25T04:54:23;8.9;;;3.8;;
4325;SDS011;58429;49.826;10.880;2023-04-25T04:55:23;8.9;;;3.8;;
4325;SDS011;58429;49.826;10.880;2023-04-25T04:56:23;9.5;;;4.1;;
4325;SDS011;58429;49.826;10.880;2023-04-25T04:57:23;9.5;;;4.1;;
4325;SDS011;58429;49.826;10.880;2023-04-25T04:58:23;9.5;;;4.1;;
4325;SDS011;58429;49.826;10.880;2023-04-25T04:59:23;9.7;;;4.1;;
4325;SDS011;58429;49.826;10.880;2023-04-25T05:00:23;9.7;;;4.1;;
4325;SDS011;58429;49.826;10.880;2023-04-25T05:01:23;9.7;;;4.1;;
4325;SDS011;58429;49.826;10.880;2023-04-25T05:02:23;10.5;;;4.8;;
4325;SDS011;58429;49.826;10.880;2023-04-25T05:03:23;10.5;;;4.8;;
4325;SDS011;58429;49.826;10.880;2023-04-25T05:04:23;10.5;;;4.8;;
4325;SDS011;58429;49.826;10.880;2023-04-25T05:05:23;9.8;;;4.4;;
4325;SDS011;58429;49.826;10.880;2023-04-25T05:06:23;9.8;;;4.4;;
4325;SDS011;58429;49.826;10.880;2023-04-25T05:07:23;9.8;;;4.4;;
4325;SDS011;58429;49.826;10.880;2023-04-25T05:08:23;9.9;;;4.7;;
4325;SDS011;58429;49.826;10.880;2023-04-25T05:09:23;9.9;;;4.7;;
4325;SDS011;58429;49.826;10.880;2023-04-25T05:10:23;9.9;;;4.7;;
4325;SDS011;58429;49.826;10.880;2023-04-25T05:11:23;9.9;;;4.7;;
4325;SDS011;58429;49.826;10.880;2023-04-25T05:12:23;9.9;;;4.8;;
4325;SDS011;58429;49.826;10.880;2023-04-25T05:13:23;9.9;;;4.8;;
4325;SDS011;58429;49.826;10.880;2023-04-25T05:14:23;9.9;;;4.8;;
4325;SDS011;58429;49.826;10.880;2023-04-25T05:15:23;9.7;;;4.7;;
4325;SDS011;58429;49.826;10.880;2023-04-25T05:16:23;9.7;;;4.7;;
4325;SDS011;58429;49.826;10.880;2023-04-25T05:17:23;9.7;;;4.7;;
4325;SDS011;58429;49.826;10.880;2023-04-25T05:18:23;11.5;;;4.8;;
4325;SDS011;58429;49.826;10.880;2023-04-25T05:19:23;11.5;;;4.8;;
4325;SDS011;58429;49.826;10.880;2023-04-25T05:20:23;11.5;;;4.8;;
4325;SDS011;58429;49.826;10.880;2023-04-25T05:21:23;11.6;;;5.2;;
4325;SDS011;58429;49.826;10.880;2023-04-25T05:22:23;11.6;;;5.2;;
4325;SDS011;58429;49.826;10.880;2023-04-25T05:23:23;11.6;;;5.2;;
4325;SDS011;58429;49.826;10.880;2023-04-25T05:24:23;10.8;;;5.2;;
4325;SDS011;58429;49.826;10.880;2023-04-25T05:25:23;10.8;;;5.2;;
4325;SDS011;58429;49.826;10.880;2023-04-25T05:26:23;10.8;;;5.2;;
4325;SDS011;58429;49.826;10.880;2023-04-25T05:27:23;10.4;;;5.2;;
4325;SDS011;58429;49.826;10.880;2023-04-25T05:28:23;10.4;;;5.2;;
4325;SDS011;58429;49.826;10.880;2023-04-25T05:29:23;10.4;;;5.2;;
4325;SDS011;58429;49.826;10.880;2023-04-25T05:30:23;11.3;;;5.5;;
4325;SDS011;58429;49.826;10.880;2023-04-25T05:31:23;11.3;;;5.5;;
4325;SDS011;58429;49.826;10.880;2023-04-25T05:32:23;11.3;;;5.5;;
4325;SDS011;58429;49.826;10.880;2023-04-25T05:33:23;11.1;;;5.4;;
4325;SDS011;58429;49.826;10.880;2023-04-25T05:34:23;11.1;;;5.4;;
4325;SDS011;58429;49.826;10.880;2023-04-25T05:35:23;11.1;;;5.4;;
4325;SDS011;58429;49.826;10.880;2023-04-25T05:36:23;11.3;;;5.7;;
4325;SDS011;58429;49.826;10.880;2023-04-25T05:37:23;11.3;;;5.7;;
4325;SDS011;58429;49.826;10.880;2023-04-25T05:38:23;11.3;;;5.7;;
4325;SDS011;58429;49.826;10.880;2023-04-25T05:39:23;11.7;;;5.9;;
4325;SDS011;58429;49.826;10.880;2023-04-25T05:40:23;11.7;;;5.9;;
4325;SDS011;58429;49.826;10.880;2023-04-25T05:41:23;11.7;;;5.9;;
4325;SDS011;58429;49.826;10.880;2023-04-25T05:42:23;12.8;;;5.7;;
4325;SDS011;58429;49.826;10.880;2023-04-25T05:43:23;12.8;;;5.7;;
4325;SDS011;58429;49.826;10.880;2023-04-25T05:44:23;12.8;;;5.7;;
4325;SDS011;58429;49.826;10.880;2023-04-25T05:45:23;12.4;;;6.1;;
4325;SDS011;58429;49.826;10.880;2023-04-25T05:46:23;12.4;;;6.1;;
4325;SDS011;58429;49.826;10.880;2023-04-25T05:47:23;12.4;;;6.1;;
4325;SDS011;58429;49.826;10.880;2023-04-25T05:48:23;12.9;;;6;;
4325;SDS011;58429;49.826;10.880;2023-04-25T05:49:23;12.9;;;6;;
4325;SDS011;58429;49.826;10.880;2023-04-25T05:50:23;12.9;;;6;;
4325;SDS011;58429;49.826;10.880;2023-04-25T05:51:23;12.1;;;5.8;;
4325;SDS011;58429;49.826;10.880;2023-04-25T05:52:23;12.1;;;5.8;;
4325;SDS011;58429;49.826;10.880;2023-04-25T05:53:23;12.1;;;5.8;;
4325;SDS011;58429;49.826;10.880;2023-04-25T05:54:23;12.2;;;5.8;;
4325;SDS011;58429;49.826;10.880;2023-04-25T05:55:23;12.2;;;5.8;;
4325;SDS011;58429;49.826;10.880;2023-04-25T05:56:23;12.2;;;5.8;;
4325;SDS011;58429;49.826;10.880;2023-04-25T05:57:24;11.6;;;5.8;;
4325;SDS011;58429;49.826;10.880;2023-04-25T05:58:23;11.6;;;5.8;;
4325;SDS011;58429;49.826;10.880;2023-04-25T05:59:23;11.6;;;5.8;;
4325;SDS011;58429;49.826;10.880;2023-04-25T06:00:23;12.8;;;6.3;;
4325;SDS011;58429;49.826;10.880;2023-04-25T06:01:23;12.8;;;6.3;;
4325;SDS011;58429;49.826;10.880;2023-04-25T06:02:23;12.8;;;6.3;;
4325;SDS011;58429;49.826;10.880;2023-04-25T06:03:23;11.4;;;5.9;;
4325;SDS011;58429;49.826;10.880;2023-04-25T06:04:23;11.4;;;5.9;;
4325;SDS011;58429;49.826;10.880;2023-04-25T06:05:23;11.4;;;5.9;;
4325;SDS011;58429;49.826;10.880;2023-04-25T06:06:23;14.1;;;6.6;;
4325;SDS011;58429;49.826;10.880;2023-04-25T06:07:23;14.1;;;6.6;;
4325;SDS011;58429;49.826;10.880;2023-04-25T06:08:23;14.1;;;6.6;;
4325;SDS011;58429;49.826;10.880;2023-04-25T06:09:23;13.7;;;6.8;;
4325;SDS011;58429;49.826;10.880;2023-04-25T06:10:23;13.7;;;6.8;;
4325;SDS011;58429;49.826;10.880;2023-04-25T06:11:23;13.7;;;6.8;;
4325;SDS011;58429;49.826;10.880;2023-04-25T06:12:23;13.7;;;7;;